sensor_id;sensor_type;location;lat;lon;timestamp;temperature;humidity
14475;DHT22;7323;50.848;4.334;2024-02-26T00:00:11;8.20;57.20
14475;DHT22;7323;50.848;4.334;2024-02-26T00:02:37;8.20;59.30
14475;DHT22;7323;50.848;4.334;2024-02-26T00:05:05;8.20;65.60
14475;DHT22;7323;50.848;4.334;2024-02-26T00:07:31;8.20;66.40
14475;DHT22;7323;50.848;4.334;2024-02-26T00:09:57;8.10;67.70
14475;DHT22;7323;50.848;4.334;2024-02-26T00:12:23;8.20;71.10
14475;DHT22;7323;50.848;4.334;2024-02-26T00:14:48;8.10;73.30
14475;DHT22;7323;50.848;4.334;2024-02-26T00:17:15;8.10;69.90
14475;DHT22;7323;50.848;4.334;2024-02-26T00:19:41;8.10;69.70
14475;DHT22;7323;50.848;4.334;2024-02-26T00:22:07;8.00;80.60
14475;DHT22;7323;50.848;4.334;2024-02-26T00:24:32;8.00;82.80
14475;DHT22;7323;50.848;4.334;2024-02-26T00:26:59;7.90;88.20
14475;DHT22;7323;50.848;4.334;2024-02-26T00:29:24;8.00;92.50
14475;DHT22;7323;50.848;4.334;2024-02-26T00:31:51;8.00;93.50
14475;DHT22;7323;50.848;4.334;2024-02-26T00:34:17;8.10;95.70
14475;DHT22;7323;50.848;4.334;2024-02-26T00:36:43;7.90;96.30
14475;DHT22;7323;50.848;4.334;2024-02-26T00:39:09;7.90;95.00
14475;DHT22;7323;50.848;4.334;2024-02-26T00:41:40;7.90;97.30
14475;DHT22;7323;50.848;4.334;2024-02-26T00:44:06;8.00;98.00
14475;DHT22;7323;50.848;4.334;2024-02-26T00:46:31;7.90;97.00
14475;DHT22;7323;50.848;4.334;2024-02-26T00:48:57;8.00;98.20
14475;DHT22;7323;50.848;4.334;2024-02-26T00:51:23;7.90;98.00
14475;DHT22;7323;50.848;4.334;2024-02-26T00:53:48;8.00;98.30
14475;DHT22;7323;50.848;4.334;2024-02-26T00:56:14;7.90;99.20
14475;DHT22;7323;50.848;4.334;2024-02-26T00:58:40;7.90;99.80
14475;DHT22;7323;50.848;4.334;2024-02-26T01:01:05;7.90;99.90
14475;DHT22;7323;50.848;4.334;2024-02-26T01:03:31;8.00;99.90
14475;DHT22;7323;50.848;4.334;2024-02-26T01:05:56;7.90;99.90
14475;DHT22;7323;50.848;4.334;2024-02-26T01:08:22;7.90;99.90
14475;DHT22;7323;50.848;4.334;2024-02-26T01:10:48;7.70;99.90
14475;DHT22;7323;50.848;4.334;2024-02-26T01:13:14;7.70;99.90
14475;DHT22;7323;50.848;4.334;2024-02-26T01:15:40;7.70;99.90
14475;DHT22;7323;50.848;4.334;2024-02-26T01:18:06;7.70;99.90
14475;DHT22;7323;50.848;4.334;2024-02-26T01:20:32;7.80;99.90
14475;DHT22;7323;50.848;4.334;2024-02-26T01:22:57;7.70;99.90
14475;DHT22;7323;50.848;4.334;2024-02-26T01:25:23;7.60;99.90
14475;DHT22;7323;50.848;4.334;2024-02-26T01:27:49;7.50;99.90
14475;DHT22;7323;50.848;4.334;2024-02-26T01:30:14;7.70;99.90
14475;DHT22;7323;50.848;4.334;2024-02-26T01:32:42;7.50;99.90
14475;DHT22;7323;50.848;4.334;2024-02-26T01:35:07;7.60;99.90
14475;DHT22;7323;50.848;4.334;2024-02-26T01:37:36;7.50;99.90
14475;DHT22;7323;50.848;4.334;2024-02-26T01:40:02;7.60;99.90
14475;DHT22;7323;50.848;4.334;2024-02-26T01:42:30;7.50;99.90
14475;DHT22;7323;50.848;4.334;2024-02-26T01:44:56;7.50;99.90
14475;DHT22;7323;50.848;4.334;2024-02-26T01:47:22;7.50;99.90
14475;DHT22;7323;50.848;4.334;2024-02-26T01:49:48;7.60;99.90
14475;DHT22;7323;50.848;4.334;2024-02-26T01:52:15;7.60;99.90
14475;DHT22;7323;50.848;4.334;2024-02-26T01:54:42;7.50;99.90
14475;DHT22;7323;50.848;4.334;2024-02-26T01:57:11;7.50;99.90
14475;DHT22;7323;50.848;4.334;2024-02-26T01:59:38;7.50;99.90
14475;DHT22;7323;50.848;4.334;2024-02-26T02:02:08;7.50;99.90
14475;DHT22;7323;50.848;4.334;2024-02-26T02:04:36;7.50;99.90
14475;DHT22;7323;50.848;4.334;2024-02-26T02:07:02;7.50;99.90
14475;DHT22;7323;50.848;4.334;2024-02-26T02:09:28;7.50;99.90
14475;DHT22;7323;50.848;4.334;2024-02-26T02:11:54;7.50;99.90
14475;DHT22;7323;50.848;4.334;2024-02-26T02:14:20;7.50;99.90
14475;DHT22;7323;50.848;4.334;2024-02-26T02:16:47;7.50;99.90
14475;DHT22;7323;50.848;4.334;2024-02-26T02:19:13;7.50;99.90
14475;DHT22;7323;50.848;4.334;2024-02-26T02:21:39;7.40;99.90
14475;DHT22;7323;50.848;4.334;2024-02-26T02:24:05;7.50;99.90
14475;DHT22;7323;50.848;4.334;2024-02-26T02:26:30;7.40;99.90
14475;DHT22;7323;50.848;4.334;2024-02-26T02:28:57;7.60;99.90
14475;DHT22;7323;50.848;4.334;2024-02-26T02:31:22;7.60;99.90
14475;DHT22;7323;50.848;4.334;2024-02-26T02:33:48;7.50;99.90
14475;DHT22;7323;50.848;4.334;2024-02-26T02:36:14;7.40;99.90
14475;DHT22;7323;50.848;4.334;2024-02-26T02:38:48;7.40;99.90
14475;DHT22;7323;50.848;4.334;2024-02-26T02:41:15;7.40;99.90
14475;DHT22;7323;50.848;4.334;2024-02-26T02:43:41;7.40;99.90
14475;DHT22;7323;50.848;4.334;2024-02-26T02:46:07;7.50;99.90
14475;DHT22;7323;50.848;4.334;2024-02-26T02:48:32;7.50;99.90
14475;DHT22;7323;50.848;4.334;2024-02-26T02:50:58;7.50;99.90
14475;DHT22;7323;50.848;4.334;2024-02-26T02:53:24;7.40;99.90
14475;DHT22;7323;50.848;4.334;2024-02-26T02:55:49;7.30;99.90
14475;DHT22;7323;50.848;4.334;2024-02-26T02:58:16;7.30;99.90
14475;DHT22;7323;50.848;4.334;2024-02-26T03:00:41;7.40;99.90
14475;DHT22;7323;50.848;4.334;2024-02-26T03:03:07;7.30;99.90
14475;DHT22;7323;50.848;4.334;2024-02-26T03:05:33;7.30;99.90
14475;DHT22;7323;50.848;4.334;2024-02-26T03:07:58;7.40;99.90
14475;DHT22;7323;50.848;4.334;2024-02-26T03:10:25;7.40;99.90
14475;DHT22;7323;50.848;4.334;2024-02-26T03:12:51;7.30;99.90
14475;DHT22;7323;50.848;4.334;2024-02-26T03:15:16;7.30;99.90
14475;DHT22;7323;50.848;4.334;2024-02-26T03:17:42;7.40;99.90
14475;DHT22;7323;50.848;4.334;2024-02-26T03:20:08;7.40;99.90
14475;DHT22;7323;50.848;4.334;2024-02-26T03:22:35;7.30;99.90
14475;DHT22;7323;50.848;4.334;2024-02-26T03:25:01;7.30;99.90
14475;DHT22;7323;50.848;4.334;2024-02-26T03:27:26;7.20;99.90
14475;DHT22;7323;50.848;4.334;2024-02-26T03:29:52;7.20;99.90
14475;DHT22;7323;50.848;4.334;2024-02-26T03:32:18;7.30;99.90
14475;DHT22;7323;50.848;4.334;2024-02-26T03:34:45;7.20;99.90
14475;DHT22;7323;50.848;4.334;2024-02-26T03:37:10;7.30;99.90
14475;DHT22;7323;50.848;4.334;2024-02-26T03:39:36;7.30;99.90
14475;DHT22;7323;50.848;4.334;2024-02-26T03:42:03;7.30;99.90
14475;DHT22;7323;50.848;4.334;2024-02-26T03:44:29;7.20;99.90
14475;DHT22;7323;50.848;4.334;2024-02-26T03:46:54;7.30;99.90
14475;DHT22;7323;50.848;4.334;2024-02-26T03:49:21;7.30;99.90
14475;DHT22;7323;50.848;4.334;2024-02-26T03:51:48;7.30;99.90
14475;DHT22;7323;50.848;4.334;2024-02-26T03:54:13;7.10;99.90
14475;DHT22;7323;50.848;4.334;2024-02-26T03:56:39;7.10;99.90
14475;DHT22;7323;50.848;4.334;2024-02-26T03:59:05;7.20;99.90
14475;DHT22;7323;50.848;4.334;2024-02-26T04:01:30;7.30;99.90
14475;DHT22;7323;50.848;4.334;2024-02-26T04:03:56;7.20;99.90
14475;DHT22;7323;50.848;4.334;2024-02-26T04:06:22;7.10;99.90
14475;DHT22;7323;50.848;4.334;2024-02-26T04:08:48;7.00;99.90
14475;DHT22;7323;50.848;4.334;2024-02-26T04:11:14;7.00;99.90
14475;DHT22;7323;50.848;4.334;2024-02-26T04:13:43;7.10;99.90
14475;DHT22;7323;50.848;4.334;2024-02-26T04:16:11;7.00;99.90
14475;DHT22;7323;50.848;4.334;2024-02-26T04:18:37;7.10;99.90
14475;DHT22;7323;50.848;4.334;2024-02-26T04:21:04;7.10;99.90
14475;DHT22;7323;50.848;4.334;2024-02-26T04:23:31;7.20;99.90
14475;DHT22;7323;50.848;4.334;2024-02-26T04:25:56;7.20;99.90
14475;DHT22;7323;50.848;4.334;2024-02-26T04:28:22;7.00;99.90
14475;DHT22;7323;50.848;4.334;2024-02-26T04:30:51;7.20;99.90
14475;DHT22;7323;50.848;4.334;2024-02-26T04:33:16;7.10;99.90
14475;DHT22;7323;50.848;4.334;2024-02-26T04:35:42;7.00;99.90
14475;DHT22;7323;50.848;4.334;2024-02-26T04:38:08;7.10;99.90
14475;DHT22;7323;50.848;4.334;2024-02-26T04:40:33;7.00;99.90
14475;DHT22;7323;50.848;4.334;2024-02-26T04:42:59;7.20;99.90
14475;DHT22;7323;50.848;4.334;2024-02-26T04:45:25;7.00;99.90
14475;DHT22;7323;50.848;4.334;2024-02-26T04:47:50;6.90;99.90
14475;DHT22;7323;50.848;4.334;2024-02-26T04:50:16;7.00;99.90
14475;DHT22;7323;50.848;4.334;2024-02-26T04:52:42;7.00;99.90
14475;DHT22;7323;50.848;4.334;2024-02-26T04:55:08;7.00;99.90
14475;DHT22;7323;50.848;4.334;2024-02-26T04:57:33;7.00;99.90
14475;DHT22;7323;50.848;4.334;2024-02-26T04:59:59;7.20;99.90
14475;DHT22;7323;50.848;4.334;2024-02-26T05:02:24;7.00;99.90
14475;DHT22;7323;50.848;4.334;2024-02-26T05:04:50;7.00;99.90
14475;DHT22;7323;50.848;4.334;2024-02-26T05:07:16;7.00;99.90
14475;DHT22;7323;50.848;4.334;2024-02-26T05:09:44;6.90;99.90
14475;DHT22;7323;50.848;4.334;2024-02-26T05:12:10;6.90;99.90
14475;DHT22;7323;50.848;4.334;2024-02-26T05:14:36;7.10;99.90
14475;DHT22;7323;50.848;4.334;2024-02-26T05:17:01;7.00;99.90
14475;DHT22;7323;50.848;4.334;2024-02-26T05:19:27;6.90;99.90
14475;DHT22;7323;50.848;4.334;2024-02-26T05:21:52;7.00;99.90
14475;DHT22;7323;50.848;4.334;2024-02-26T05:24:18;7.00;99.90
14475;DHT22;7323;50.848;4.334;2024-02-26T05:26:47;6.80;99.90
14475;DHT22;7323;50.848;4.334;2024-02-26T05:29:13;6.80;99.90
14475;DHT22;7323;50.848;4.334;2024-02-26T05:31:39;7.00;99.90
14475;DHT22;7323;50.848;4.334;2024-02-26T05:34:05;6.90;99.90
14475;DHT22;7323;50.848;4.334;2024-02-26T05:36:30;6.80;99.90
14475;DHT22;7323;50.848;4.334;2024-02-26T05:39:02;6.90;99.90
14475;DHT22;7323;50.848;4.334;2024-02-26T05:41:29;6.90;99.90
14475;DHT22;7323;50.848;4.334;2024-02-26T05:43:55;6.90;99.90
14475;DHT22;7323;50.848;4.334;2024-02-26T05:46:21;6.80;99.90
14475;DHT22;7323;50.848;4.334;2024-02-26T05:48:48;6.90;99.90
14475;DHT22;7323;50.848;4.334;2024-02-26T05:51:14;6.90;99.90
14475;DHT22;7323;50.848;4.334;2024-02-26T05:53:41;7.00;99.90
14475;DHT22;7323;50.848;4.334;2024-02-26T05:56:06;7.00;99.90
14475;DHT22;7323;50.848;4.334;2024-02-26T05:58:32;7.10;99.90
14475;DHT22;7323;50.848;4.334;2024-02-26T06:00:58;6.90;99.90
14475;DHT22;7323;50.848;4.334;2024-02-26T06:03:24;7.00;99.90
14475;DHT22;7323;50.848;4.334;2024-02-26T06:05:49;7.00;99.90
14475;DHT22;7323;50.848;4.334;2024-02-26T06:08:15;6.90;99.90
14475;DHT22;7323;50.848;4.334;2024-02-26T06:10:41;7.00;99.90
14475;DHT22;7323;50.848;4.334;2024-02-26T06:13:06;6.90;99.90
14475;DHT22;7323;50.848;4.334;2024-02-26T06:15:32;6.90;99.90
14475;DHT22;7323;50.848;4.334;2024-02-26T06:17:58;6.90;99.90
14475;DHT22;7323;50.848;4.334;2024-02-26T06:20:23;6.90;99.90
14475;DHT22;7323;50.848;4.334;2024-02-26T06:22:49;6.90;99.90
14475;DHT22;7323;50.848;4.334;2024-02-26T06:25:15;6.90;99.90
14475;DHT22;7323;50.848;4.334;2024-02-26T06:27:40;6.80;99.90
14475;DHT22;7323;50.848;4.334;2024-02-26T06:30:06;6.80;99.90
14475;DHT22;7323;50.848;4.334;2024-02-26T06:32:34;6.80;99.90
14475;DHT22;7323;50.848;4.334;2024-02-26T06:34:59;7.00;99.90
14475;DHT22;7323;50.848;4.334;2024-02-26T06:37:26;6.90;99.90
14475;DHT22;7323;50.848;4.334;2024-02-26T06:39:51;6.90;99.90
14475;DHT22;7323;50.848;4.334;2024-02-26T06:42:17;7.00;99.90
14475;DHT22;7323;50.848;4.334;2024-02-26T06:44:43;6.80;99.90
14475;DHT22;7323;50.848;4.334;2024-02-26T06:47:09;6.80;99.90
14475;DHT22;7323;50.848;4.334;2024-02-26T06:49:34;6.80;99.90
14475;DHT22;7323;50.848;4.334;2024-02-26T06:52:00;6.90;99.90
14475;DHT22;7323;50.848;4.334;2024-02-26T06:54:25;6.90;99.90
14475;DHT22;7323;50.848;4.334;2024-02-26T06:56:51;6.80;99.90
14475;DHT22;7323;50.848;4.334;2024-02-26T06:59:17;6.80;99.90
14475;DHT22;7323;50.848;4.334;2024-02-26T07:01:43;6.90;99.90
14475;DHT22;7323;50.848;4.334;2024-02-26T07:04:08;6.90;99.90
14475;DHT22;7323;50.848;4.334;2024-02-26T07:06:36;6.80;99.90
14475;DHT22;7323;50.848;4.334;2024-02-26T07:09:02;6.90;99.90
14475;DHT22;7323;50.848;4.334;2024-02-26T07:11:28;6.80;99.90
14475;DHT22;7323;50.848;4.334;2024-02-26T07:13:53;6.80;99.90
14475;DHT22;7323;50.848;4.334;2024-02-26T07:16:19;6.70;99.90
14475;DHT22;7323;50.848;4.334;2024-02-26T07:18:47;6.90;99.90
14475;DHT22;7323;50.848;4.334;2024-02-26T07:21:12;6.80;99.90
14475;DHT22;7323;50.848;4.334;2024-02-26T07:23:38;6.80;99.90
14475;DHT22;7323;50.848;4.334;2024-02-26T07:26:04;6.80;99.90
14475;DHT22;7323;50.848;4.334;2024-02-26T07:28:29;6.70;99.90
14475;DHT22;7323;50.848;4.334;2024-02-26T07:30:55;6.70;99.90
14475;DHT22;7323;50.848;4.334;2024-02-26T07:33:21;6.70;99.90
14475;DHT22;7323;50.848;4.334;2024-02-26T07:35:46;6.70;99.90
14475;DHT22;7323;50.848;4.334;2024-02-26T07:38:12;6.70;99.90
14475;DHT22;7323;50.848;4.334;2024-02-26T07:40:39;6.70;99.90
14475;DHT22;7323;50.848;4.334;2024-02-26T07:43:04;6.70;99.90
14475;DHT22;7323;50.848;4.334;2024-02-26T07:45:30;6.60;99.90
14475;DHT22;7323;50.848;4.334;2024-02-26T07:47:56;6.90;99.90
14475;DHT22;7323;50.848;4.334;2024-02-26T07:50:21;6.80;99.90
14475;DHT22;7323;50.848;4.334;2024-02-26T07:52:47;6.90;99.90
14475;DHT22;7323;50.848;4.334;2024-02-26T07:55:13;6.70;99.90
14475;DHT22;7323;50.848;4.334;2024-02-26T07:57:42;6.70;99.90
14475;DHT22;7323;50.848;4.334;2024-02-26T08:00:08;6.80;99.90
14475;DHT22;7323;50.848;4.334;2024-02-26T08:02:35;6.60;99.90
14475;DHT22;7323;50.848;4.334;2024-02-26T08:05:00;6.60;99.90
14475;DHT22;7323;50.848;4.334;2024-02-26T08:07:26;6.80;99.90
14475;DHT22;7323;50.848;4.334;2024-02-26T08:09:52;6.70;99.90
14475;DHT22;7323;50.848;4.334;2024-02-26T08:12:17;6.70;99.90
14475;DHT22;7323;50.848;4.334;2024-02-26T08:14:43;6.80;99.90
14475;DHT22;7323;50.848;4.334;2024-02-26T08:17:09;6.70;99.90
14475;DHT22;7323;50.848;4.334;2024-02-26T08:19:35;6.80;99.90
14475;DHT22;7323;50.848;4.334;2024-02-26T08:22:01;6.60;99.90
14475;DHT22;7323;50.848;4.334;2024-02-26T08:24:27;6.80;99.90
14475;DHT22;7323;50.848;4.334;2024-02-26T08:26:53;6.60;99.90
14475;DHT22;7323;50.848;4.334;2024-02-26T08:29:19;6.80;99.90
14475;DHT22;7323;50.848;4.334;2024-02-26T08:31:45;6.60;99.90
14475;DHT22;7323;50.848;4.334;2024-02-26T08:34:10;6.60;99.90
14475;DHT22;7323;50.848;4.334;2024-02-26T08:36:36;6.80;99.90
14475;DHT22;7323;50.848;4.334;2024-02-26T08:39:02;6.70;99.90
14475;DHT22;7323;50.848;4.334;2024-02-26T08:41:28;6.60;99.90
14475;DHT22;7323;50.848;4.334;2024-02-26T08:43:54;6.70;99.90
14475;DHT22;7323;50.848;4.334;2024-02-26T08:46:20;6.50;99.90
14475;DHT22;7323;50.848;4.334;2024-02-26T08:48:46;6.60;99.90
14475;DHT22;7323;50.848;4.334;2024-02-26T08:51:12;6.60;99.90
14475;DHT22;7323;50.848;4.334;2024-02-26T08:53:39;6.60;99.90
14475;DHT22;7323;50.848;4.334;2024-02-26T08:56:05;6.60;99.90
14475;DHT22;7323;50.848;4.334;2024-02-26T08:58:31;6.60;99.90
14475;DHT22;7323;50.848;4.334;2024-02-26T09:00:56;6.60;99.90
14475;DHT22;7323;50.848;4.334;2024-02-26T09:03:22;6.70;99.90
14475;DHT22;7323;50.848;4.334;2024-02-26T09:05:48;6.60;99.90
14475;DHT22;7323;50.848;4.334;2024-02-26T09:08:14;6.60;99.90
14475;DHT22;7323;50.848;4.334;2024-02-26T09:10:40;6.70;99.90
14475;DHT22;7323;50.848;4.334;2024-02-26T09:13:05;6.60;99.90
14475;DHT22;7323;50.848;4.334;2024-02-26T09:15:31;6.70;99.90
14475;DHT22;7323;50.848;4.334;2024-02-26T09:17:57;6.80;99.90
14475;DHT22;7323;50.848;4.334;2024-02-26T09:20:23;6.70;99.90
14475;DHT22;7323;50.848;4.334;2024-02-26T09:22:49;6.60;99.90
14475;DHT22;7323;50.848;4.334;2024-02-26T09:25:16;6.80;99.90
14475;DHT22;7323;50.848;4.334;2024-02-26T09:27:44;6.60;99.90
14475;DHT22;7323;50.848;4.334;2024-02-26T09:30:11;6.70;99.90
14475;DHT22;7323;50.848;4.334;2024-02-26T09:32:37;6.60;99.90
14475;DHT22;7323;50.848;4.334;2024-02-26T09:35:03;6.60;99.90
14475;DHT22;7323;50.848;4.334;2024-02-26T09:37:29;6.60;99.90
14475;DHT22;7323;50.848;4.334;2024-02-26T09:39:55;6.60;99.90
14475;DHT22;7323;50.848;4.334;2024-02-26T09:42:21;6.60;99.90
14475;DHT22;7323;50.848;4.334;2024-02-26T09:44:53;6.70;99.90
14475;DHT22;7323;50.848;4.334;2024-02-26T09:47:19;6.60;99.90
14475;DHT22;7323;50.848;4.334;2024-02-26T09:49:47;6.60;99.90
14475;DHT22;7323;50.848;4.334;2024-02-26T09:52:15;6.50;99.90
14475;DHT22;7323;50.848;4.334;2024-02-26T09:54:41;6.50;99.90
14475;DHT22;7323;50.848;4.334;2024-02-26T09:57:09;6.60;99.90
14475;DHT22;7323;50.848;4.334;2024-02-26T09:59:41;6.70;99.90
14475;DHT22;7323;50.848;4.334;2024-02-26T10:02:14;6.50;99.90
14475;DHT22;7323;50.848;4.334;2024-02-26T10:04:41;6.60;99.90
14475;DHT22;7323;50.848;4.334;2024-02-26T10:07:11;6.60;99.90
14475;DHT22;7323;50.848;4.334;2024-02-26T10:09:38;6.60;99.90
14475;DHT22;7323;50.848;4.334;2024-02-26T10:12:10;6.70;99.90
14475;DHT22;7323;50.848;4.334;2024-02-26T10:14:36;6.60;99.90
14475;DHT22;7323;50.848;4.334;2024-02-26T10:17:02;6.60;99.90
14475;DHT22;7323;50.848;4.334;2024-02-26T10:19:29;6.50;99.90
14475;DHT22;7323;50.848;4.334;2024-02-26T10:21:59;6.50;99.90
14475;DHT22;7323;50.848;4.334;2024-02-26T10:24:26;6.70;99.90
14475;DHT22;7323;50.848;4.334;2024-02-26T10:26:52;6.60;99.90
14475;DHT22;7323;50.848;4.334;2024-02-26T10:29:20;6.70;99.90
14475;DHT22;7323;50.848;4.334;2024-02-26T10:31:46;6.70;99.90
14475;DHT22;7323;50.848;4.334;2024-02-26T10:34:12;6.60;99.90
14475;DHT22;7323;50.848;4.334;2024-02-26T10:36:38;6.60;99.90
14475;DHT22;7323;50.848;4.334;2024-02-26T10:39:07;6.40;99.90
14475;DHT22;7323;50.848;4.334;2024-02-26T10:41:33;6.60;99.90
14475;DHT22;7323;50.848;4.334;2024-02-26T10:43:59;6.60;99.90
14475;DHT22;7323;50.848;4.334;2024-02-26T10:46:25;6.60;99.90
14475;DHT22;7323;50.848;4.334;2024-02-26T10:48:52;6.50;99.90
14475;DHT22;7323;50.848;4.334;2024-02-26T10:51:30;6.60;99.90
14475;DHT22;7323;50.848;4.334;2024-02-26T10:53:59;6.60;99.90
14475;DHT22;7323;50.848;4.334;2024-02-26T10:56:30;6.60;99.90
14475;DHT22;7323;50.848;4.334;2024-02-26T10:58:59;6.60;99.90
14475;DHT22;7323;50.848;4.334;2024-02-26T11:01:27;6.60;99.90
14475;DHT22;7323;50.848;4.334;2024-02-26T11:03:55;6.50;99.90
14475;DHT22;7323;50.848;4.334;2024-02-26T11:06:26;6.70;99.90
14475;DHT22;7323;50.848;4.334;2024-02-26T11:08:53;6.60;99.90
14475;DHT22;7323;50.848;4.334;2024-02-26T11:11:20;6.60;99.90
14475;DHT22;7323;50.848;4.334;2024-02-26T11:13:47;6.60;99.90
14475;DHT22;7323;50.848;4.334;2024-02-26T11:16:21;6.40;99.90
14475;DHT22;7323;50.848;4.334;2024-02-26T11:18:52;6.40;99.90
14475;DHT22;7323;50.848;4.334;2024-02-26T11:21:21;6.30;99.90
14475;DHT22;7323;50.848;4.334;2024-02-26T11:23:56;6.30;99.90
14475;DHT22;7323;50.848;4.334;2024-02-26T11:26:23;6.40;99.90
14475;DHT22;7323;50.848;4.334;2024-02-26T11:28:51;6.40;99.90
14475;DHT22;7323;50.848;4.334;2024-02-26T11:31:17;6.50;99.90
14475;DHT22;7323;50.848;4.334;2024-02-26T11:33:50;6.40;99.90
14475;DHT22;7323;50.848;4.334;2024-02-26T11:36:17;6.40;99.90
14475;DHT22;7323;50.848;4.334;2024-02-26T11:38:44;6.40;99.90
14475;DHT22;7323;50.848;4.334;2024-02-26T11:41:09;6.30;99.90
14475;DHT22;7323;50.848;4.334;2024-02-26T11:44:04;6.30;99.90
14475;DHT22;7323;50.848;4.334;2024-02-26T11:46:33;6.30;99.90
14475;DHT22;7323;50.848;4.334;2024-02-26T11:51:56;6.20;99.90
14475;DHT22;7323;50.848;4.334;2024-02-26T11:57:03;6.20;99.90
14475;DHT22;7323;50.848;4.334;2024-02-26T11:59:38;6.10;99.90
14475;DHT22;7323;50.848;4.334;2024-02-26T12:02:04;6.20;99.90
14475;DHT22;7323;50.848;4.334;2024-02-26T12:04:30;6.20;99.90
14475;DHT22;7323;50.848;4.334;2024-02-26T12:06:56;6.30;99.90
14475;DHT22;7323;50.848;4.334;2024-02-26T12:09:37;6.20;99.90
14475;DHT22;7323;50.848;4.334;2024-02-26T12:12:05;6.20;99.90
14475;DHT22;7323;50.848;4.334;2024-02-26T12:14:34;6.20;99.90
14475;DHT22;7323;50.848;4.334;2024-02-26T12:17:00;6.40;99.90
14475;DHT22;7323;50.848;4.334;2024-02-26T12:19:27;6.30;99.90
14475;DHT22;7323;50.848;4.334;2024-02-26T12:21:53;6.40;99.90
14475;DHT22;7323;50.848;4.334;2024-02-26T12:24:22;6.40;99.90
14475;DHT22;7323;50.848;4.334;2024-02-26T12:26:48;6.30;99.90
14475;DHT22;7323;50.848;4.334;2024-02-26T12:29:14;6.50;99.90
14475;DHT22;7323;50.848;4.334;2024-02-26T12:31:40;6.30;99.90
14475;DHT22;7323;50.848;4.334;2024-02-26T12:34:07;6.40;99.90
14475;DHT22;7323;50.848;4.334;2024-02-26T12:36:35;6.40;99.90
14475;DHT22;7323;50.848;4.334;2024-02-26T12:39:05;6.40;99.90
14475;DHT22;7323;50.848;4.334;2024-02-26T12:41:35;6.40;99.90
14475;DHT22;7323;50.848;4.334;2024-02-26T12:44:01;6.50;99.90
14475;DHT22;7323;50.848;4.334;2024-02-26T12:46:26;6.40;99.90
14475;DHT22;7323;50.848;4.334;2024-02-26T12:48:55;6.70;99.90
14475;DHT22;7323;50.848;4.334;2024-02-26T12:51:23;6.50;99.90
14475;DHT22;7323;50.848;4.334;2024-02-26T12:53:50;6.50;99.90
14475;DHT22;7323;50.848;4.334;2024-02-26T12:56:18;6.40;99.90
14475;DHT22;7323;50.848;4.334;2024-02-26T12:58:44;6.60;99.90
14475;DHT22;7323;50.848;4.334;2024-02-26T13:01:15;6.40;99.90
14475;DHT22;7323;50.848;4.334;2024-02-26T13:03:42;6.40;99.90
14475;DHT22;7323;50.848;4.334;2024-02-26T13:06:09;6.30;99.90
14475;DHT22;7323;50.848;4.334;2024-02-26T13:08:35;6.40;99.90
14475;DHT22;7323;50.848;4.334;2024-02-26T13:11:01;6.40;99.90
14475;DHT22;7323;50.848;4.334;2024-02-26T13:13:26;6.40;99.90
14475;DHT22;7323;50.848;4.334;2024-02-26T13:16:03;6.20;99.90
14475;DHT22;7323;50.848;4.334;2024-02-26T13:18:30;6.20;99.90
14475;DHT22;7323;50.848;4.334;2024-02-26T13:21:09;6.40;99.90
14475;DHT22;7323;50.848;4.334;2024-02-26T13:23:35;6.30;99.90
14475;DHT22;7323;50.848;4.334;2024-02-26T13:26:01;6.30;99.90
14475;DHT22;7323;50.848;4.334;2024-02-26T13:28:27;6.20;99.90
14475;DHT22;7323;50.848;4.334;2024-02-26T13:30:57;6.20;99.90
14475;DHT22;7323;50.848;4.334;2024-02-26T13:33:24;6.20;99.90
14475;DHT22;7323;50.848;4.334;2024-02-26T13:35:50;6.20;99.90
14475;DHT22;7323;50.848;4.334;2024-02-26T13:38:16;6.20;99.90
14475;DHT22;7323;50.848;4.334;2024-02-26T13:40:42;6.20;99.90
14475;DHT22;7323;50.848;4.334;2024-02-26T13:43:08;6.20;99.90
14475;DHT22;7323;50.848;4.334;2024-02-26T13:45:34;6.20;99.90
14475;DHT22;7323;50.848;4.334;2024-02-26T13:48:19;6.20;99.90
14475;DHT22;7323;50.848;4.334;2024-02-26T13:50:44;6.20;99.90
14475;DHT22;7323;50.848;4.334;2024-02-26T13:53:11;6.20;99.90
14475;DHT22;7323;50.848;4.334;2024-02-26T13:55:38;6.30;99.90
14475;DHT22;7323;50.848;4.334;2024-02-26T13:58:05;6.40;99.90
14475;DHT22;7323;50.848;4.334;2024-02-26T14:00:32;6.30;99.90
14475;DHT22;7323;50.848;4.334;2024-02-26T14:03:00;6.20;99.90
14475;DHT22;7323;50.848;4.334;2024-02-26T14:05:25;6.20;99.90
14475;DHT22;7323;50.848;4.334;2024-02-26T14:07:52;6.30;99.90
14475;DHT22;7323;50.848;4.334;2024-02-26T14:10:18;6.30;99.90
14475;DHT22;7323;50.848;4.334;2024-02-26T14:12:43;6.20;99.90
14475;DHT22;7323;50.848;4.334;2024-02-26T14:15:10;6.40;99.90
14475;DHT22;7323;50.848;4.334;2024-02-26T14:17:36;6.30;99.90
14475;DHT22;7323;50.848;4.334;2024-02-26T14:20:02;6.40;99.90
14475;DHT22;7323;50.848;4.334;2024-02-26T14:22:29;6.40;99.90
14475;DHT22;7323;50.848;4.334;2024-02-26T14:24:56;6.30;99.90
14475;DHT22;7323;50.848;4.334;2024-02-26T14:27:22;6.40;99.90
14475;DHT22;7323;50.848;4.334;2024-02-26T14:29:48;6.40;99.90
14475;DHT22;7323;50.848;4.334;2024-02-26T14:32:14;6.40;99.90
14475;DHT22;7323;50.848;4.334;2024-02-26T14:34:41;6.50;99.90
14475;DHT22;7323;50.848;4.334;2024-02-26T14:37:06;6.50;99.90
14475;DHT22;7323;50.848;4.334;2024-02-26T14:39:32;6.40;99.90
14475;DHT22;7323;50.848;4.334;2024-02-26T14:41:58;6.40;99.90
14475;DHT22;7323;50.848;4.334;2024-02-26T14:44:24;6.40;99.90
14475;DHT22;7323;50.848;4.334;2024-02-26T14:46:51;6.50;99.90
14475;DHT22;7323;50.848;4.334;2024-02-26T14:49:17;6.40;99.90
14475;DHT22;7323;50.848;4.334;2024-02-26T14:51:43;6.40;99.90
14475;DHT22;7323;50.848;4.334;2024-02-26T14:54:11;6.40;99.90
14475;DHT22;7323;50.848;4.334;2024-02-26T14:56:37;6.40;99.90
14475;DHT22;7323;50.848;4.334;2024-02-26T14:59:02;6.60;99.90
14475;DHT22;7323;50.848;4.334;2024-02-26T15:01:28;6.40;99.90
14475;DHT22;7323;50.848;4.334;2024-02-26T15:03:54;6.50;99.90
14475;DHT22;7323;50.848;4.334;2024-02-26T15:06:20;6.60;99.90
14475;DHT22;7323;50.848;4.334;2024-02-26T15:08:45;6.40;99.90
14475;DHT22;7323;50.848;4.334;2024-02-26T15:11:11;6.50;99.90
14475;DHT22;7323;50.848;4.334;2024-02-26T15:13:37;6.40;99.90
14475;DHT22;7323;50.848;4.334;2024-02-26T15:16:03;6.50;99.90
14475;DHT22;7323;50.848;4.334;2024-02-26T15:18:29;6.40;99.90
14475;DHT22;7323;50.848;4.334;2024-02-26T15:20:54;6.60;99.90
14475;DHT22;7323;50.848;4.334;2024-02-26T15:23:20;6.50;99.90
14475;DHT22;7323;50.848;4.334;2024-02-26T15:25:46;6.40;99.90
14475;DHT22;7323;50.848;4.334;2024-02-26T15:28:12;6.60;99.90
14475;DHT22;7323;50.848;4.334;2024-02-26T15:30:40;6.50;99.90
14475;DHT22;7323;50.848;4.334;2024-02-26T15:33:06;6.60;99.90
14475;DHT22;7323;50.848;4.334;2024-02-26T15:35:31;6.50;99.90
14475;DHT22;7323;50.848;4.334;2024-02-26T15:37:57;6.50;99.90
14475;DHT22;7323;50.848;4.334;2024-02-26T15:40:24;6.50;99.90
14475;DHT22;7323;50.848;4.334;2024-02-26T15:42:49;6.60;99.90
14475;DHT22;7323;50.848;4.334;2024-02-26T15:45:15;6.50;99.90
14475;DHT22;7323;50.848;4.334;2024-02-26T15:47:42;6.60;99.90
14475;DHT22;7323;50.848;4.334;2024-02-26T15:50:08;6.40;99.90
14475;DHT22;7323;50.848;4.334;2024-02-26T15:52:36;6.50;99.90
14475;DHT22;7323;50.848;4.334;2024-02-26T15:55:06;6.60;99.90
14475;DHT22;7323;50.848;4.334;2024-02-26T15:57:32;6.50;99.90
14475;DHT22;7323;50.848;4.334;2024-02-26T16:00:01;6.60;99.90
14475;DHT22;7323;50.848;4.334;2024-02-26T16:02:30;6.40;99.90